Time;durP1;ratioP1;P1;durP2;ratioP2;P2;SDS_P1;SDS_P2;PMS_P1;PMS_P2;Temp;Humidity;BMP_temperature;BMP_pressure;BME280_temperature;BME280_humidity;BME280_pressure;Samples;Min_cycle;Max_cycle;Signal;HPM_P1;HPM_P2
2022/07/13 00:00:49;;;;;;;6.60;2.85;;;;;;;;;;5046620;28;20282;-71
2022/07/13 00:03:14;;;;;;;4.70;2.47;;;;;;;;;;5043287;28;20033;-70
2022/07/13 00:05:39;;;;;;;4.67;2.83;;;;;;;;;;5046391;28;20020;-70
2022/07/13 00:08:04;;;;;;;3.93;2.53;;;;;;;;;;5048580;28;20298;-70
2022/07/13 00:10:30;;;;;;;2.92;2.13;;;;;;;;;;5046826;28;20267;-70
2022/07/13 00:12:55;;;;;;;3.97;2.50;;;;;;;;;;5047893;28;20087;-71
2022/07/13 00:15:21;;;;;;;5.90;2.50;;;;;;;;;;5043142;28;20290;-71
2022/07/13 00:17:46;;;;;;;5.03;2.92;;;;;;;;;;5037071;28;20279;-70
2022/07/13 00:20:11;;;;;;;7.30;2.60;;;;;;;;;;5026337;28;20029;-70
2022/07/13 00:22:36;;;;;;;3.70;2.30;;;;;;;;;;5042968;28;20279;-70
2022/07/13 00:25:02;;;;;;;3.58;2.58;;;;;;;;;;5041200;28;20416;-70
2022/07/13 00:27:27;;;;;;;4.07;2.30;;;;;;;;;;5049784;28;20021;-70
2022/07/13 00:29:52;;;;;;;3.05;2.17;;;;;;;;;;5046155;28;20024;-70
2022/07/13 00:32:17;;;;;;;7.47;2.50;;;;;;;;;;5046910;28;20100;-70
2022/07/13 00:34:43;;;;;;;9.77;2.33;;;;;;;;;;5042810;28;20464;-70
2022/07/13 00:37:08;;;;;;;5.70;2.33;;;;;;;;;;5044238;28;20280;-71
2022/07/13 00:39:33;;;;;;;4.77;2.70;;;;;;;;;;5044893;28;20792;-70
2022/07/13 00:41:58;;;;;;;10.03;3.20;;;;;;;;;;5048653;28;20027;-70
2022/07/13 00:44:23;;;;;;;5.47;2.40;;;;;;;;;;5049025;28;20263;-70
2022/07/13 00:46:53;;;;;;;4.10;2.50;;;;;;;;;;5049404;28;20636;-70
2022/07/13 00:49:18;;;;;;;4.32;2.75;;;;;;;;;;5049849;28;20017;-70
2022/07/13 00:51:43;;;;;;;4.35;2.90;;;;;;;;;;5050186;28;20027;-70
2022/07/13 00:54:09;;;;;;;3.23;2.47;;;;;;;;;;5048935;28;20026;-70
2022/07/13 00:56:35;;;;;;;4.72;2.40;;;;;;;;;;5051944;28;20290;-70
2022/07/13 00:59:00;;;;;;;9.63;2.70;;;;;;;;;;5043274;28;20040;-70
2022/07/13 01:01:26;;;;;;;10.18;2.50;;;;;;;;;;5049433;28;20017;-70
2022/07/13 01:03:52;;;;;;;4.57;2.80;;;;;;;;;;5048551;28;20025;-71
2022/07/13 01:06:17;;;;;;;3.60;2.05;;;;;;;;;;5050867;28;20031;-71
2022/07/13 01:08:42;;;;;;;6.78;2.75;;;;;;;;;;5045364;28;20092;-70
2022/07/13 01:11:08;;;;;;;7.78;2.45;;;;;;;;;;5041107;28;20416;-71
2022/07/13 01:13:34;;;;;;;7.20;2.45;;;;;;;;;;5052151;28;20453;-71
2022/07/13 01:15:59;;;;;;;3.25;2.60;;;;;;;;;;5050889;28;20017;-72
2022/07/13 01:18:25;;;;;;;8.23;3.13;;;;;;;;;;5046598;28;20025;-70
2022/07/13 01:20:51;;;;;;;3.40;2.78;;;;;;;;;;5048216;28;20282;-71
2022/07/13 01:23:17;;;;;;;5.18;2.67;;;;;;;;;;5049527;28;20013;-70
2022/07/13 01:25:43;;;;;;;7.20;3.10;;;;;;;;;;5045666;28;20529;-70
2022/07/13 01:28:08;;;;;;;3.42;2.50;;;;;;;;;;5047397;28;20026;-71
2022/07/13 01:30:33;;;;;;;4.07;2.90;;;;;;;;;;5052777;28;20021;-70
2022/07/13 01:32:58;;;;;;;4.10;2.80;;;;;;;;;;5051093;28;20636;-70
2022/07/13 01:35:24;;;;;;;4.27;3.30;;;;;;;;;;5047392;28;20053;-70
2022/07/13 01:37:50;;;;;;;3.22;2.40;;;;;;;;;;5048604;28;20290;-70
2022/07/13 01:40:15;;;;;;;6.82;2.63;;;;;;;;;;5044761;28;20025;-70
2022/07/13 01:42:43;;;;;;;7.25;2.20;;;;;;;;;;5050128;28;20024;-71
2022/07/13 01:45:09;;;;;;;4.55;2.75;;;;;;;;;;5051256;28;20055;-70
2022/07/13 01:47:43;;;;;;;3.90;2.58;;;;;;;;;;5030553;28;20021;-70
2022/07/13 01:50:09;;;;;;;3.97;2.67;;;;;;;;;;5046906;28;20024;-70
2022/07/13 01:52:35;;;;;;;4.35;2.20;;;;;;;;;;5046480;28;20021;-70
2022/07/13 01:55:01;;;;;;;5.00;2.42;;;;;;;;;;5051191;28;20394;-70
2022/07/13 01:57:26;;;;;;;4.38;2.72;;;;;;;;;;5046036;28;20059;-70
2022/07/13 01:59:51;;;;;;;6.63;3.40;;;;;;;;;;5046599;28;20029;-70
2022/07/13 02:02:16;;;;;;;4.10;2.40;;;;;;;;;;5047044;28;20100;-71
2022/07/13 02:04:42;;;;;;;3.67;2.50;;;;;;;;;;5050411;28;20033;-70
2022/07/13 02:07:07;;;;;;;5.65;2.83;;;;;;;;;;5046670;28;20013;-71
2022/07/13 02:09:33;;;;;;;3.42;2.47;;;;;;;;;;5051193;28;20047;-70
2022/07/13 02:11:58;;;;;;;3.63;2.77;;;;;;;;;;5048304;28;20036;-70
2022/07/13 02:14:23;;;;;;;4.70;2.63;;;;;;;;;;5049604;28;20340;-70
2022/07/13 02:16:48;;;;;;;3.15;2.50;;;;;;;;;;5048857;28;20100;-70
2022/07/13 02:19:13;;;;;;;4.97;3.23;;;;;;;;;;5048786;28;20052;-71
2022/07/13 02:21:38;;;;;;;3.70;2.77;;;;;;;;;;5049167;28;20283;-70
2022/07/13 02:24:04;;;;;;;3.88;2.45;;;;;;;;;;5046085;28;20271;-72
2022/07/13 02:26:29;;;;;;;4.55;2.75;;;;;;;;;;5050700;28;20017;-71
2022/07/13 02:28:54;;;;;;;4.07;2.67;;;;;;;;;;5045957;28;20551;-71
2022/07/13 02:31:20;;;;;;;5.97;2.67;;;;;;;;;;5049707;28;20024;-70
2022/07/13 02:33:46;;;;;;;5.22;2.35;;;;;;;;;;5046277;28;20022;-70
2022/07/13 02:36:11;;;;;;;6.67;2.50;;;;;;;;;;5049008;28;20056;-71
2022/07/13 02:38:36;;;;;;;4.27;2.50;;;;;;;;;;5046205;28;20745;-70
2022/07/13 02:41:01;;;;;;;3.97;2.60;;;;;;;;;;5048280;28;20029;-71
2022/07/13 02:43:26;;;;;;;3.15;2.50;;;;;;;;;;5047513;28;20294;-70
2022/07/13 02:45:51;;;;;;;9.73;2.53;;;;;;;;;;5048124;28;20032;-70
2022/07/13 02:48:17;;;;;;;3.97;2.37;;;;;;;;;;5049757;28;20029;-70
2022/07/13 02:50:42;;;;;;;3.67;2.63;;;;;;;;;;5044454;28;20291;-70
2022/07/13 02:53:07;;;;;;;4.55;2.70;;;;;;;;;;5048088;28;20310;-70
2022/07/13 02:55:32;;;;;;;4.60;2.80;;;;;;;;;;5052690;23;20045;-91
2022/07/13 02:58:00;;;;;;;5.25;2.38;;;;;;;;;;5028785;28;20614;-90
2022/07/13 03:00:25;;;;;;;4.93;3.00;;;;;;;;;;5016902;28;20040;-90
2022/07/13 03:02:51;;;;;;;3.63;2.38;;;;;;;;;;5010726;28;20021;-90
2022/07/13 03:05:16;;;;;;;4.38;2.72;;;;;;;;;;5018960;28;20027;-91
2022/07/13 03:07:41;;;;;;;4.82;1.98;;;;;;;;;;5029180;28;20044;-92
2022/07/13 03:10:07;;;;;;;2.83;2.35;;;;;;;;;;5030170;28;20397;-90
2022/07/13 03:12:33;;;;;;;4.38;2.10;;;;;;;;;;5026998;28;20067;-90
2022/07/13 03:15:04;;;;;;;5.07;2.42;;;;;;;;;;5020161;28;20028;-90
2022/07/13 03:17:30;;;;;;;4.15;2.17;;;;;;;;;;5014757;28;20521;-90
2022/07/13 03:19:58;;;;;;;11.27;2.17;;;;;;;;;;5042842;28;20021;-90
2022/07/13 03:22:24;;;;;;;3.42;2.45;;;;;;;;;;5039516;28;20031;-90
2022/07/13 03:24:49;;;;;;;3.22;2.22;;;;;;;;;;5030102;28;20056;-90
2022/07/13 03:27:15;;;;;;;3.30;1.83;;;;;;;;;;5012642;28;20472;-92
2022/07/13 03:29:41;;;;;;;4.45;2.63;;;;;;;;;;5018320;28;20017;-90
2022/07/13 03:32:06;;;;;;;3.88;2.75;;;;;;;;;;5026319;28;20021;-90
2022/07/13 03:34:31;;;;;;;4.10;2.50;;;;;;;;;;5025093;28;20061;-90
2022/07/13 03:37:00;;;;;;;4.15;2.60;;;;;;;;;;5017979;28;20014;-90
2022/07/13 03:39:25;;;;;;;4.70;2.45;;;;;;;;;;5014262;28;20025;-90
2022/07/13 03:41:51;;;;;;;6.45;2.50;;;;;;;;;;5024568;28;20013;-90
2022/07/13 03:44:16;;;;;;;3.60;2.53;;;;;;;;;;5011316;28;20108;-90
2022/07/13 03:46:41;;;;;;;3.38;2.17;;;;;;;;;;5021776;28;20047;-90
2022/07/13 03:49:07;;;;;;;3.55;2.55;;;;;;;;;;5028648;28;20021;-88
2022/07/13 03:51:32;;;;;;;5.60;2.63;;;;;;;;;;5014374;28;20024;-90
2022/07/13 03:53:57;;;;;;;3.08;2.22;;;;;;;;;;5029898;28;20017;-90
2022/07/13 03:56:22;;;;;;;3.13;2.25;;;;;;;;;;5013162;28;20021;-90
2022/07/13 03:58:48;;;;;;;5.10;2.17;;;;;;;;;;5008743;28;20017;-90
2022/07/13 04:01:19;;;;;;;3.70;2.35;;;;;;;;;;5010313;28;20280;-89
2022/07/13 04:03:47;;;;;;;3.70;2.30;;;;;;;;;;5027622;28;20039;-89
2022/07/13 04:06:12;;;;;;;4.03;2.10;;;;;;;;;;5026643;28;20028;-90
2022/07/13 04:08:38;;;;;;;4.70;2.08;;;;;;;;;;5028653;28;20482;-90
2022/07/13 04:11:03;;;;;;;4.75;2.22;;;;;;;;;;5025821;28;20021;-90
2022/07/13 04:13:29;;;;;;;3.95;2.42;;;;;;;;;;5036152;28;20021;-90
2022/07/13 04:15:55;;;;;;;2.97;2.17;;;;;;;;;;5025337;28;20029;-90
2022/07/13 04:18:20;;;;;;;2.80;1.92;;;;;;;;;;5025137;28;20013;-89
2022/07/13 04:20:48;;;;;;;2.50;2.13;;;;;;;;;;5008877;28;20822;-90
2022/07/13 04:23:14;;;;;;;3.30;2.20;;;;;;;;;;5029286;28;20486;-90
2022/07/13 04:25:42;;;;;;;4.43;2.05;;;;;;;;;;5026506;28;20064;-90
2022/07/13 04:28:07;;;;;;;6.35;2.22;;;;;;;;;;5020186;28;20091;-90
2022/07/13 04:30:32;;;;;;;6.53;2.42;;;;;;;;;;5019841;28;20401;-90
2022/07/13 04:32:58;;;;;;;2.95;2.00;;;;;;;;;;5023939;28;20064;-90
2022/07/13 04:35:23;;;;;;;2.50;1.90;;;;;;;;;;5012463;28;20041;-89
2022/07/13 04:37:48;;;;;;;3.42;2.05;;;;;;;;;;5022789;28;20482;-90
2022/07/13 04:40:16;;;;;;;5.90;2.33;;;;;;;;;;5009561;28;20533;-90
2022/07/13 04:42:42;;;;;;;4.38;2.47;;;;;;;;;;5029527;28;20071;-90
2022/07/13 04:45:07;;;;;;;2.92;2.10;;;;;;;;;;5027529;28;20456;-91
2022/07/13 04:47:33;;;;;;;5.53;2.90;;;;;;;;;;5014983;28;20549;-90
2022/07/13 04:49:58;;;;;;;5.80;2.53;;;;;;;;;;5027312;28;20029;-90
2022/07/13 04:52:24;;;;;;;3.42;2.10;;;;;;;;;;5016582;28;20022;-90
2022/07/13 04:54:50;;;;;;;3.50;2.17;;;;;;;;;;5012104;28;20049;-89
2022/07/13 04:57:15;;;;;;;4.93;2.10;;;;;;;;;;5013101;28;20072;-90
2022/07/13 04:59:41;;;;;;;2.50;2.10;;;;;;;;;;5021264;28;20489;-90
2022/07/13 05:02:07;;;;;;;7.35;2.13;;;;;;;;;;5013091;28;20017;-90
2022/07/13 05:04:35;;;;;;;4.95;2.00;;;;;;;;;;5016919;28;20018;-89
2022/07/13 05:07:01;;;;;;;6.15;2.20;;;;;;;;;;5009767;28;20022;-90
2022/07/13 05:09:26;;;;;;;3.75;2.60;;;;;;;;;;5026107;28;20014;-89
2022/07/13 05:11:52;;;;;;;3.58;2.45;;;;;;;;;;5027852;28;20044;-90
2022/07/13 05:14:18;;;;;;;5.68;1.95;;;;;;;;;;5028953;28;20017;-89
2022/07/13 05:16:43;;;;;;;5.18;2.13;;;;;;;;;;5017856;28;20037;-90
2022/07/13 05:19:09;;;;;;;4.22;2.30;;;;;;;;;;5024625;28;20470;-91
2022/07/13 05:21:34;;;;;;;4.22;1.98;;;;;;;;;;5009298;28;20039;-90
2022/07/13 05:23:59;;;;;;;4.70;2.03;;;;;;;;;;5029247;28;20484;-90
2022/07/13 05:26:25;;;;;;;6.93;2.33;;;;;;;;;;5027572;28;20417;-89
2022/07/13 05:28:50;;;;;;;4.88;2.17;;;;;;;;;;5030179;28;20170;-89
2022/07/13 05:31:54;;;;;;;2.92;1.80;;;;;;;;;;5016326;28;20030;-90
2022/07/13 05:34:25;;;;;;;2.38;1.80;;;;;;;;;;4938923;28;20114;-90
2022/07/13 05:37:16;;;;;;;2.10;1.42;;;;;;;;;;4948303;28;20035;-89
2022/07/13 05:39:59;;;;;;;3.55;1.85;;;;;;;;;;4947891;28;20023;-89
2022/07/13 05:42:33;;;;;;;2.45;1.45;;;;;;;;;;4947972;28;20031;-90
2022/07/13 05:45:21;;;;;;;5.55;1.90;;;;;;;;;;4928987;29;20111;-89
2022/07/13 05:47:49;;;;;;;3.28;1.83;;;;;;;;;;4935530;28;20419;-88
2022/07/13 05:50:24;;;;;;;3.97;1.95;;;;;;;;;;5014879;23;20152;-90
2022/07/13 05:53:13;;;;;;;2.58;1.50;;;;;;;;;;5022658;28;20033;-91
2022/07/13 05:58:39;;;;;;;3.72;1.70;;;;;;;;;;4957467;28;20011;-89
2022/07/13 06:01:05;;;;;;;2.35;1.80;;;;;;;;;;4988650;28;20086;-87
2022/07/13 06:03:30;;;;;;;4.95;2.63;;;;;;;;;;5025883;28;20010;-86
2022/07/13 06:05:55;;;;;;;5.77;2.37;;;;;;;;;;5023607;28;20034;-86
2022/07/13 06:08:20;;;;;;;3.58;1.58;;;;;;;;;;5019115;28;20272;-87
2022/07/13 06:10:46;;;;;;;4.13;1.37;;;;;;;;;;5027515;28;20002;-87
2022/07/13 06:13:11;;;;;;;3.28;1.65;;;;;;;;;;5010138;28;20271;-87
2022/07/13 06:15:36;;;;;;;2.58;1.40;;;;;;;;;;5008996;28;20564;-87
2022/07/13 06:18:02;;;;;;;5.88;2.00;;;;;;;;;;5008751;28;20076;-86
2022/07/13 06:20:27;;;;;;;1.40;1.00;;;;;;;;;;5001286;28;20747;-85
2022/07/13 06:23:11;;;;;;;2.50;1.48;;;;;;;;;;4995113;28;20053;-86
2022/07/13 06:25:37;;;;;;;4.20;1.23;;;;;;;;;;4982089;28;20478;-89
2022/07/13 06:28:03;;;;;;;4.57;1.75;;;;;;;;;;5007458;28;21923;-90
2022/07/13 06:30:28;;;;;;;5.93;1.60;;;;;;;;;;5002269;28;20109;-89
2022/07/13 06:32:54;;;;;;;4.15;1.40;;;;;;;;;;5002937;28;20022;-87
2022/07/13 06:35:19;;;;;;;2.17;1.33;;;;;;;;;;5009825;28;20022;-86
2022/07/13 06:37:44;;;;;;;1.73;1.40;;;;;;;;;;4987772;28;20018;-88
2022/07/13 06:40:10;;;;;;;3.17;1.60;;;;;;;;;;4990846;28;20022;-88
2022/07/13 06:42:35;;;;;;;4.32;1.88;;;;;;;;;;4998531;28;20014;-89
2022/07/13 06:45:00;;;;;;;4.72;1.38;;;;;;;;;;5005678;28;20029;-87
2022/07/13 06:47:26;;;;;;;4.80;1.50;;;;;;;;;;5001012;28;20031;-87
2022/07/13 06:49:51;;;;;;;3.20;1.67;;;;;;;;;;4999128;28;20095;-88
2022/07/13 06:52:16;;;;;;;10.63;1.77;;;;;;;;;;5007349;28;20272;-87
2022/07/13 06:54:41;;;;;;;1.80;1.27;;;;;;;;;;4991535;28;20033;-87
2022/07/13 06:57:07;;;;;;;4.80;2.15;;;;;;;;;;4997318;28;20040;-87
2022/07/13 06:59:32;;;;;;;4.95;1.50;;;;;;;;;;4997968;28;20505;-87
2022/07/13 07:01:58;;;;;;;2.42;1.25;;;;;;;;;;5005376;28;20050;-87
2022/07/13 07:04:23;;;;;;;3.13;1.73;;;;;;;;;;5008429;28;20022;-87
2022/07/13 07:06:48;;;;;;;5.20;1.85;;;;;;;;;;4991282;28;20030;-88
2022/07/13 07:09:13;;;;;;;6.43;2.08;;;;;;;;;;5003659;28;20030;-87
2022/07/13 07:11:39;;;;;;;4.47;1.50;;;;;;;;;;4980555;28;20026;-86
2022/07/13 07:14:07;;;;;;;3.45;1.30;;;;;;;;;;5000066;28;20712;-88
2022/07/13 07:16:32;;;;;;;2.70;1.40;;;;;;;;;;5010215;28;20021;-87
2022/07/13 07:18:57;;;;;;;7.23;2.43;;;;;;;;;;5003267;28;20497;-87
2022/07/13 07:21:23;;;;;;;6.93;1.67;;;;;;;;;;4997876;28;20757;-88
2022/07/13 07:23:48;;;;;;;2.80;1.52;;;;;;;;;;4993474;28;20041;-87
2022/07/13 07:26:14;;;;;;;5.38;1.70;;;;;;;;;;4987182;28;20461;-88
2022/07/13 07:28:40;;;;;;;2.55;1.38;;;;;;;;;;4992435;28;20018;-88
2022/07/13 07:31:05;;;;;;;4.37;2.27;;;;;;;;;;4996066;28;20032;-87
2022/07/13 07:33:31;;;;;;;4.30;1.50;;;;;;;;;;5008260;28;21145;-88
2022/07/13 07:35:56;;;;;;;5.25;1.60;;;;;;;;;;4997091;28;20367;-88
2022/07/13 07:38:22;;;;;;;8.68;2.03;;;;;;;;;;5005510;28;20022;-86
2022/07/13 07:40:47;;;;;;;2.70;1.80;;;;;;;;;;4992708;28;20483;-88
2022/07/13 07:43:12;;;;;;;5.93;1.55;;;;;;;;;;4996334;28;20018;-87
2022/07/13 07:45:38;;;;;;;2.20;1.35;;;;;;;;;;4990909;28;20018;-87
2022/07/13 07:48:03;;;;;;;4.95;1.67;;;;;;;;;;4965857;28;20059;-88
2022/07/13 07:50:29;;;;;;;2.65;1.75;;;;;;;;;;4977243;28;20033;-87
2022/07/13 07:52:54;;;;;;;7.63;2.00;;;;;;;;;;5002730;28;20030;-86
2022/07/13 07:55:19;;;;;;;9.75;2.28;;;;;;;;;;4984045;28;20030;-86
2022/07/13 07:57:46;;;;;;;10.65;1.80;;;;;;;;;;5000024;28;20049;-87
2022/07/13 08:00:11;;;;;;;4.57;1.98;;;;;;;;;;4989958;28;20022;-87
2022/07/13 08:02:36;;;;;;;7.35;1.70;;;;;;;;;;4993096;28;20064;-88
2022/07/13 08:05:02;;;;;;;10.02;1.52;;;;;;;;;;4994112;28;20022;-87
2022/07/13 08:07:30;;;;;;;5.55;2.00;;;;;;;;;;5000554;28;20021;-87
2022/07/13 08:09:56;;;;;;;10.18;2.03;;;;;;;;;;5001337;28;20025;-86
2022/07/13 08:12:21;;;;;;;6.40;1.90;;;;;;;;;;5009936;28;20033;-87
2022/07/13 08:14:47;;;;;;;5.43;2.03;;;;;;;;;;5015871;28;20026;-89
2022/07/13 08:17:12;;;;;;;5.45;2.13;;;;;;;;;;5011421;28;21915;-88
2022/07/13 08:19:37;;;;;;;7.72;1.83;;;;;;;;;;5017285;28;20083;-87
2022/07/13 08:22:03;;;;;;;5.05;2.22;;;;;;;;;;5008896;28;20551;-86
2022/07/13 08:24:28;;;;;;;5.33;2.13;;;;;;;;;;4999994;28;20125;-87
2022/07/13 08:26:54;;;;;;;8.63;2.45;;;;;;;;;;4993518;28;20284;-87
2022/07/13 08:29:28;;;;;;;5.15;2.10;;;;;;;;;;4983628;28;20478;-87
2022/07/13 08:31:53;;;;;;;5.40;1.90;;;;;;;;;;5012078;28;20025;-87
2022/07/13 08:39:47;;;;;;;8.88;2.22;;;;;;;;;;5006520;28;20029;-68
2022/07/13 08:42:13;;;;;;;8.77;2.38;;;;;;;;;;5007353;28;20120;-69
2022/07/13 08:44:38;;;;;;;4.13;1.92;;;;;;;;;;5005360;28;20439;-69
2022/07/13 08:47:05;;;;;;;5.13;2.07;;;;;;;;;;5005843;28;20029;-69
2022/07/13 08:49:30;;;;;;;7.47;1.90;;;;;;;;;;5007105;28;20096;-69
2022/07/13 08:51:56;;;;;;;6.88;2.03;;;;;;;;;;5007498;28;20105;-69
2022/07/13 08:54:21;;;;;;;7.18;2.00;;;;;;;;;;5007118;28;20064;-69
2022/07/13 08:56:46;;;;;;;3.40;1.67;;;;;;;;;;5002962;28;20026;-69
2022/07/13 08:59:13;;;;;;;4.20;1.73;;;;;;;;;;5005776;28;20061;-69
2022/07/13 09:01:38;;;;;;;5.40;1.80;;;;;;;;;;5011218;28;20029;-69
2022/07/13 09:04:07;;;;;;;10.43;1.92;;;;;;;;;;5013544;28;20021;-69
2022/07/13 09:06:38;;;;;;;5.28;1.70;;;;;;;;;;5010865;28;20421;-69
2022/07/13 09:09:04;;;;;;;7.80;2.13;;;;;;;;;;5008952;28;20026;-69
2022/07/13 09:11:29;;;;;;;9.82;1.88;;;;;;;;;;5009575;28;20517;-69
2022/07/13 09:13:56;;;;;;;8.27;2.20;;;;;;;;;;5011295;28;20129;-69
2022/07/13 09:16:22;;;;;;;14.77;2.00;;;;;;;;;;5010629;28;20466;-69
2022/07/13 09:18:48;;;;;;;8.70;2.22;;;;;;;;;;5010708;28;20486;-68
2022/07/13 09:21:14;;;;;;;5.30;2.25;;;;;;;;;;5007619;28;20101;-68
2022/07/13 09:23:39;;;;;;;8.35;2.08;;;;;;;;;;5009344;28;20108;-69
2022/07/13 09:26:05;;;;;;;4.60;1.67;;;;;;;;;;5008431;28;20076;-68
2022/07/13 09:28:40;;;;;;;6.63;2.40;;;;;;;;;;5009740;28;20405;-68
2022/07/13 09:31:05;;;;;;;7.78;2.40;;;;;;;;;;5011720;28;20106;-68
2022/07/13 09:33:32;;;;;;;7.80;1.98;;;;;;;;;;5011916;28;20101;-68
2022/07/13 09:35:58;;;;;;;5.63;1.50;;;;;;;;;;5032443;22;20042;-68
2022/07/13 09:38:34;;;;;;;6.95;2.30;;;;;;;;;;5029918;28;20045;-68
2022/07/13 09:41:20;;;;;;;7.05;1.67;;;;;;;;;;5028736;28;20477;-68
2022/07/13 09:46:35;;;;;;;7.38;1.85;;;;;;;;;;5017245;28;20437;-68
2022/07/13 09:49:00;;;;;;;9.80;2.75;;;;;;;;;;5009043;28;20036;-68
2022/07/13 09:51:26;;;;;;;11.63;2.53;;;;;;;;;;5011810;28;20584;-68
2022/07/13 09:53:54;;;;;;;6.82;1.92;;;;;;;;;;4996144;28;20052;-67
2022/07/13 09:56:23;;;;;;;7.05;1.85;;;;;;;;;;5010140;28;20042;-68
2022/07/13 09:58:49;;;;;;;10.32;2.53;;;;;;;;;;5009189;28;20072;-68
2022/07/13 10:01:14;;;;;;;7.43;1.63;;;;;;;;;;5010809;28;20044;-70
2022/07/13 10:03:40;;;;;;;4.28;1.38;;;;;;;;;;5010068;28;20084;-69
2022/07/13 10:06:05;;;;;;;6.80;1.52;;;;;;;;;;5004734;28;20381;-69
2022/07/13 10:08:31;;;;;;;4.63;1.45;;;;;;;;;;5008381;28;20760;-68
2022/07/13 10:10:57;;;;;;;8.57;1.90;;;;;;;;;;5008752;28;20033;-68
2022/07/13 10:13:23;;;;;;;5.27;1.50;;;;;;;;;;5009091;28;20025;-68
2022/07/13 10:15:48;;;;;;;9.82;1.95;;;;;;;;;;5009844;28;20276;-69
2022/07/13 10:18:26;;;;;;;24.40;2.10;;;;;;;;;;5008060;28;20029;-68
2022/07/13 10:21:00;;;;;;;5.00;1.70;;;;;;;;;;5008372;28;20367;-68
2022/07/13 10:23:30;;;;;;;3.55;1.95;;;;;;;;;;5009364;28;20022;-68
2022/07/13 10:25:55;;;;;;;7.40;2.65;;;;;;;;;;5004762;28;20048;-68
2022/07/13 10:28:20;;;;;;;12.20;4.20;;;;;;;;;;5008966;28;20462;-68
2022/07/13 10:30:46;;;;;;;9.03;2.83;;;;;;;;;;5008038;28;20727;-68
2022/07/13 10:33:18;;;;;;;8.80;2.38;;;;;;;;;;5009434;28;20020;-68
2022/07/13 10:35:48;;;;;;;9.20;2.45;;;;;;;;;;5007596;28;20042;-68
2022/07/13 10:38:17;;;;;;;5.72;1.95;;;;;;;;;;5010506;28;20093;-68
2022/07/13 10:40:42;;;;;;;4.50;2.17;;;;;;;;;;5007016;28;20014;-68
2022/07/13 10:43:09;;;;;;;9.77;2.10;;;;;;;;;;5010349;28;20272;-69
2022/07/13 10:45:34;;;;;;;9.82;2.22;;;;;;;;;;5008016;28;20033;-68
2022/07/13 10:48:00;;;;;;;12.93;2.25;;;;;;;;;;5010889;28;20018;-69
2022/07/13 10:50:34;;;;;;;9.82;1.98;;;;;;;;;;5007743;28;20108;-69
2022/07/13 10:53:00;;;;;;;11.68;1.90;;;;;;;;;;5010259;28;20036;-68
2022/07/13 10:55:32;;;;;;;7.72;1.80;;;;;;;;;;5006471;28;20100;-68
2022/07/13 10:57:57;;;;;;;18.77;2.50;;;;;;;;;;5007395;28;20018;-69
2022/07/13 11:00:43;;;;;;;5.18;1.90;;;;;;;;;;5009633;28;20375;-68
2022/07/13 11:03:23;;;;;;;3.95;2.45;;;;;;;;;;5010282;28;20410;-68
2022/07/13 11:06:07;;;;;;;7.07;2.33;;;;;;;;;;5009807;28;20423;-69
2022/07/13 11:08:32;;;;;;;5.13;2.17;;;;;;;;;;5006771;28;20045;-69
2022/07/13 11:11:11;;;;;;;4.83;2.13;;;;;;;;;;5006144;28;20478;-68
2022/07/13 11:13:36;;;;;;;6.15;2.70;;;;;;;;;;5009578;28;20109;-68
2022/07/13 11:16:02;;;;;;;6.70;2.47;;;;;;;;;;5005614;28;20132;-68
2022/07/13 11:18:29;;;;;;;6.93;2.53;;;;;;;;;;5006064;28;20024;-69
2022/07/13 11:21:10;;;;;;;6.13;2.30;;;;;;;;;;5004651;28;20386;-68
2022/07/13 11:26:40;;;;;;;4.90;2.38;;;;;;;;;;5009209;28;20049;-69
2022/07/13 11:29:15;;;;;;;5.45;2.08;;;;;;;;;;5002101;28;20028;-69
2022/07/13 11:31:40;;;;;;;8.85;3.25;;;;;;;;;;5008852;28;20014;-69
2022/07/13 11:34:06;;;;;;;8.32;2.40;;;;;;;;;;5009414;28;20025;-70
2022/07/13 11:36:32;;;;;;;3.75;1.60;;;;;;;;;;5008308;28;20112;-69
2022/07/13 11:38:57;;;;;;;3.90;1.52;;;;;;;;;;5006900;28;20022;-70
2022/07/13 11:41:23;;;;;;;5.30;1.50;;;;;;;;;;5007214;28;20550;-70
2022/07/13 11:43:49;;;;;;;9.82;1.90;;;;;;;;;;5006615;28;20075;-70
2022/07/13 11:46:21;;;;;;;4.32;1.83;;;;;;;;;;5006351;28;20120;-70
2022/07/13 11:48:46;;;;;;;5.30;1.85;;;;;;;;;;5008665;28;20025;-70
2022/07/13 11:51:13;;;;;;;4.87;1.77;;;;;;;;;;5008302;28;20030;-70
2022/07/13 11:53:38;;;;;;;5.68;2.40;;;;;;;;;;5008971;28;20049;-69
2022/07/13 11:56:05;;;;;;;16.77;2.70;;;;;;;;;;5007139;28;20470;-70
2022/07/13 11:58:32;;;;;;;7.78;3.30;;;;;;;;;;5006700;28;20276;-70
2022/07/13 12:00:58;;;;;;;4.25;1.90;;;;;;;;;;5008211;28;20176;-70
2022/07/13 12:03:24;;;;;;;4.63;2.25;;;;;;;;;;5007327;28;20412;-70
2022/07/13 12:05:49;;;;;;;7.40;2.22;;;;;;;;;;5008953;28;20034;-70
2022/07/13 12:08:16;;;;;;;6.93;1.80;;;;;;;;;;5007357;28;20055;-70
2022/07/13 12:10:41;;;;;;;3.63;1.75;;;;;;;;;;5007145;28;20133;-70
2022/07/13 12:13:07;;;;;;;10.73;1.80;;;;;;;;;;5005289;28;20101;-70
2022/07/13 12:15:32;;;;;;;6.85;1.63;;;;;;;;;;5005515;28;20366;-70
2022/07/13 12:18:02;;;;;;;3.17;1.65;;;;;;;;;;5009420;28;20046;-70
2022/07/13 12:20:31;;;;;;;4.20;1.90;;;;;;;;;;5006986;28;20062;-70
2022/07/13 12:22:57;;;;;;;4.57;1.50;;;;;;;;;;5008314;28;20282;-70
2022/07/13 12:25:28;;;;;;;7.05;2.47;;;;;;;;;;5004936;28;20195;-70
2022/07/13 12:27:54;;;;;;;5.38;1.23;;;;;;;;;;5009364;28;20107;-70
2022/07/13 12:30:19;;;;;;;4.20;1.38;;;;;;;;;;5006249;28;20049;-71
2022/07/13 12:32:57;;;;;;;3.57;1.97;;;;;;;;;;5008588;28;20033;-70
2022/07/13 12:35:26;;;;;;;4.97;1.73;;;;;;;;;;5006593;28;20793;-70
2022/07/13 12:37:52;;;;;;;16.30;1.67;;;;;;;;;;5011002;28;20033;-71
2022/07/13 12:40:36;;;;;;;3.80;1.40;;;;;;;;;;5010150;28;20065;-71
2022/07/13 12:43:01;;;;;;;3.30;1.40;;;;;;;;;;5008724;28;20378;-70
2022/07/13 12:45:32;;;;;;;5.07;1.40;;;;;;;;;;5004622;28;20618;-70
2022/07/13 12:47:57;;;;;;;3.45;1.40;;;;;;;;;;5007201;28;20026;-70
2022/07/13 12:50:26;;;;;;;5.47;1.70;;;;;;;;;;5012077;28;20068;-70
2022/07/13 12:53:01;;;;;;;5.70;1.30;;;;;;;;;;5011970;28;20024;-70
2022/07/13 12:55:26;;;;;;;5.50;1.50;;;;;;;;;;5005425;28;20042;-70
2022/07/13 12:57:52;;;;;;;9.30;1.52;;;;;;;;;;5009519;28;20022;-70
2022/07/13 13:00:22;;;;;;;6.25;1.38;;;;;;;;;;5003645;28;20018;-70
2022/07/13 13:02:47;;;;;;;4.80;1.40;;;;;;;;;;5009170;28;20022;-70
2022/07/13 13:05:13;;;;;;;1.67;0.82;;;;;;;;;;5010942;28;20033;-70
2022/07/13 13:07:39;;;;;;;3.42;1.30;;;;;;;;;;5011122;28;20033;-70
2022/07/13 13:10:05;;;;;;;7.15;1.50;;;;;;;;;;5009600;28;20014;-69
2022/07/13 13:12:30;;;;;;;4.90;1.00;;;;;;;;;;5012433;28;20025;-69
2022/07/13 13:14:56;;;;;;;4.13;0.97;;;;;;;;;;5011345;28;20036;-69
2022/07/13 13:17:21;;;;;;;7.63;1.33;;;;;;;;;;5012334;28;20363;-69
2022/07/13 13:19:46;;;;;;;7.80;1.10;;;;;;;;;;5010787;28;20033;-69
2022/07/13 13:22:11;;;;;;;3.63;1.03;;;;;;;;;;5012126;28;20068;-70
2022/07/13 13:24:39;;;;;;;8.07;1.40;;;;;;;;;;5010151;28;20021;-70
2022/07/13 13:27:05;;;;;;;2.80;1.15;;;;;;;;;;5011963;28;20104;-71
2022/07/13 13:32:14;;;;;;;4.75;1.35;;;;;;;;;;5010441;28;20501;-70
2022/07/13 13:34:39;;;;;;;13.52;1.50;;;;;;;;;;5008926;28;20026;-70
2022/07/13 13:37:04;;;;;;;13.43;1.60;;;;;;;;;;5011245;28;20022;-70
2022/07/13 13:39:30;;;;;;;4.43;1.33;;;;;;;;;;5010469;28;20277;-70
2022/07/13 13:41:55;;;;;;;3.80;1.55;;;;;;;;;;5014557;28;20014;-70
2022/07/13 13:44:20;;;;;;;3.93;1.20;;;;;;;;;;5009469;28;20462;-70
2022/07/13 13:46:45;;;;;;;6.80;1.60;;;;;;;;;;5005447;28;20113;-70
2022/07/13 13:49:11;;;;;;;13.38;1.30;;;;;;;;;;5008579;28;20025;-70
2022/07/13 13:51:36;;;;;;;6.65;1.40;;;;;;;;;;5007890;28;20057;-70
2022/07/13 13:54:02;;;;;;;6.07;1.45;;;;;;;;;;5008997;28;20227;-70
2022/07/13 13:56:27;;;;;;;8.37;1.77;;;;;;;;;;5007048;28;20039;-70
2022/07/13 13:58:52;;;;;;;5.43;1.43;;;;;;;;;;5011074;28;20284;-70
2022/07/13 14:01:17;;;;;;;9.17;1.70;;;;;;;;;;5009551;28;20069;-70
2022/07/13 14:03:44;;;;;;;6.03;1.55;;;;;;;;;;5004937;28;20029;-70
2022/07/13 14:06:12;;;;;;;6.38;1.38;;;;;;;;;;5009404;28;20025;-70
2022/07/13 14:08:37;;;;;;;3.10;1.65;;;;;;;;;;5010001;28;20026;-70
2022/07/13 14:11:02;;;;;;;2.50;1.13;;;;;;;;;;5009701;28;20363;-70
2022/07/13 14:13:27;;;;;;;2.83;1.30;;;;;;;;;;5008980;28;20450;-70
2022/07/13 14:15:53;;;;;;;4.45;1.17;;;;;;;;;;5009270;28;20018;-70
2022/07/13 14:18:20;;;;;;;9.30;1.77;;;;;;;;;;5010007;28;20025;-70
2022/07/13 14:20:45;;;;;;;4.00;1.70;;;;;;;;;;5009493;28;20269;-70
2022/07/13 14:23:10;;;;;;;2.80;1.27;;;;;;;;;;5004888;28;20024;-70
2022/07/13 14:25:35;;;;;;;4.87;1.40;;;;;;;;;;5010206;28;20549;-70
2022/07/13 14:28:01;;;;;;;8.77;1.57;;;;;;;;;;5009672;28;20295;-70
2022/07/13 14:30:26;;;;;;;8.23;1.80;;;;;;;;;;5005603;28;20030;-70
2022/07/13 14:32:51;;;;;;;4.68;1.40;;;;;;;;;;5007891;28;20057;-70
2022/07/13 14:35:17;;;;;;;6.47;1.77;;;;;;;;;;5008548;28;20353;-70
2022/07/13 14:37:42;;;;;;;8.77;1.30;;;;;;;;;;5009633;28;20018;-70
2022/07/13 14:40:07;;;;;;;5.90;1.53;;;;;;;;;;5007857;28;20020;-70
2022/07/13 14:42:33;;;;;;;4.80;1.42;;;;;;;;;;5008591;28;20319;-70
2022/07/13 14:44:58;;;;;;;9.88;1.73;;;;;;;;;;5009781;28;20018;-70
2022/07/13 14:47:23;;;;;;;8.23;2.17;;;;;;;;;;5007857;28;20013;-70
2022/07/13 14:49:48;;;;;;;3.70;1.50;;;;;;;;;;5009038;28;20034;-70
2022/07/13 14:52:15;;;;;;;10.10;1.70;;;;;;;;;;5009635;28;20399;-71
2022/07/13 14:54:40;;;;;;;6.75;2.30;;;;;;;;;;5008458;28;20495;-70
2022/07/13 14:57:05;;;;;;;8.23;1.97;;;;;;;;;;5009632;28;20029;-70